createdAt,value
2023-02-11T00:01:33.595Z,7.50
2023-02-11T00:04:03.205Z,7.70
2023-02-11T00:06:33.651Z,10.00
2023-02-11T00:09:02.324Z,10.90
2023-02-11T00:11:30.796Z,10.50
2023-02-11T00:14:04.983Z,9.20
2023-02-11T00:16:33.131Z,9.30
2023-02-11T00:19:05.834Z,10.60
2023-02-11T00:21:35.310Z,7.10
2023-02-11T00:24:04.398Z,7.30
2023-02-11T00:26:35.572Z,8.40
2023-02-11T00:29:05.580Z,7.20
2023-02-11T00:31:34.529Z,6.50
2023-02-11T00:34:02.889Z,6.60
2023-02-11T00:36:31.828Z,7.10
2023-02-11T00:39:01.066Z,6.10
2023-02-11T00:41:30.124Z,4.50
2023-02-11T00:44:02.085Z,6.40
2023-02-11T00:46:30.388Z,6.60
2023-02-11T00:48:58.753Z,5.80
2023-02-11T00:51:29.057Z,6.10
2023-02-11T00:53:58.196Z,5.30
2023-02-11T00:56:27.260Z,5.90
2023-02-11T00:58:57.770Z,5.40
2023-02-11T01:01:26.948Z,5.90
2023-02-11T01:03:55.175Z,6.40
2023-02-11T01:06:25.348Z,6.50
2023-02-11T01:08:53.604Z,6.30
2023-02-11T01:11:22.780Z,6.20
2023-02-11T01:13:51.688Z,6.70
2023-02-11T01:16:21.570Z,5.80
2023-02-11T01:18:50.009Z,5.50
2023-02-11T01:21:19.378Z,5.70
2023-02-11T01:23:47.665Z,6.20
2023-02-11T01:26:15.950Z,4.90
2023-02-11T01:28:44.617Z,7.30
2023-02-11T01:31:12.943Z,6.40
2023-02-11T01:33:41.207Z,5.50
2023-02-11T01:36:11.498Z,5.50
2023-02-11T01:38:41.362Z,6.40
2023-02-11T01:41:12.574Z,5.00
2023-02-11T01:43:44.027Z,5.60
2023-02-11T01:46:41.580Z,5.50
2023-02-11T01:49:15.293Z,5.90
2023-02-11T01:51:51.445Z,5.80
2023-02-11T01:54:43.753Z,6.10
2023-02-11T01:57:25.421Z,6.70
2023-02-11T01:59:59.901Z,7.90
2023-02-11T02:02:47.099Z,7.40
2023-02-11T02:05:25.341Z,6.70
2023-02-11T02:08:00.695Z,6.60
2023-02-11T02:10:31.134Z,7.20
2023-02-11T02:12:59.326Z,7.20
2023-02-11T02:15:32.476Z,6.10
2023-02-11T02:18:06.266Z,6.80
2023-02-11T02:20:53.009Z,7.80
2023-02-11T02:23:26.798Z,6.20
2023-02-11T02:26:07.365Z,5.10
2023-02-11T02:29:04.143Z,6.20
2023-02-11T02:32:19.947Z,7.30
2023-02-11T02:34:58.015Z,6.30
2023-02-11T02:37:51.069Z,7.20
2023-02-11T02:40:46.281Z,6.20
2023-02-11T02:43:17.062Z,7.10
2023-02-11T02:45:45.410Z,7.60
2023-02-11T02:48:33.427Z,9.10
2023-02-11T02:51:35.204Z,8.20
2023-02-11T02:54:25.113Z,14.40
2023-02-11T02:57:14.974Z,14.30
2023-02-11T02:59:49.504Z,10.50
2023-02-11T03:02:32.218Z,15.80
2023-02-11T03:05:12.309Z,13.10
2023-02-11T03:07:48.981Z,11.60
2023-02-11T03:10:23.263Z,10.40
2023-02-11T03:12:53.850Z,10.30
2023-02-11T03:15:25.174Z,10.10
2023-02-11T03:17:56.910Z,6.60
2023-02-11T03:20:25.793Z,7.40
2023-02-11T03:23:00.675Z,7.70
2023-02-11T03:25:34.873Z,6.30
2023-02-11T03:28:16.363Z,6.40
2023-02-11T03:31:00.573Z,6.40
2023-02-11T03:33:37.906Z,6.80
2023-02-11T03:36:12.553Z,8.90
2023-02-11T03:38:48.466Z,8.40
2023-02-11T03:41:22.017Z,8.70
2023-02-11T03:43:54.981Z,10.80
2023-02-11T03:46:30.896Z,7.80
2023-02-11T03:49:11.793Z,7.80
2023-02-11T03:51:41.117Z,8.70
2023-02-11T03:54:14.610Z,14.20
2023-02-11T03:56:54.918Z,15.20
2023-02-11T03:59:23.341Z,9.30
2023-02-11T04:01:52.621Z,8.30
2023-02-11T04:04:21.347Z,6.80
2023-02-11T04:06:49.701Z,6.20
2023-02-11T04:09:17.821Z,6.40
2023-02-11T04:11:45.962Z,5.20
2023-02-11T04:14:14.126Z,6.70
2023-02-11T04:16:42.260Z,5.40
2023-02-11T04:19:10.680Z,5.70
2023-02-11T04:21:38.858Z,5.90
2023-02-11T04:24:07.145Z,6.20
2023-02-11T04:26:35.618Z,11.30
2023-02-11T04:29:04.000Z,18.30
2023-02-11T04:31:32.289Z,10.60
2023-02-11T04:34:00.699Z,18.70
2023-02-11T04:36:28.762Z,17.30
2023-02-11T04:38:57.022Z,17.70
2023-02-11T04:41:25.216Z,9.30
2023-02-11T04:43:53.573Z,12.30
2023-02-11T04:46:21.914Z,15.00
2023-02-11T04:48:50.340Z,16.20
2023-02-11T04:51:18.881Z,19.50
2023-02-11T04:53:47.434Z,19.80
2023-02-11T04:56:15.569Z,21.20
2023-02-11T04:58:43.854Z,18.20
2023-02-11T05:01:15.064Z,36.50
2023-02-11T05:03:44.350Z,37.80
2023-02-11T05:06:13.153Z,34.30
2023-02-11T05:08:41.364Z,30.80
2023-02-11T05:11:16.232Z,37.20
2023-02-11T05:13:44.614Z,33.80
2023-02-11T05:16:14.237Z,24.40
2023-02-11T05:18:44.001Z,27.70
2023-02-11T05:21:15.212Z,22.60
2023-02-11T05:23:45.540Z,17.30
2023-02-11T05:26:15.084Z,11.20
2023-02-11T05:28:44.522Z,11.30
2023-02-11T05:31:14.974Z,15.50
2023-02-11T05:33:43.359Z,15.80
2023-02-11T05:36:13.561Z,16.70
2023-02-11T05:38:42.738Z,22.90
2023-02-11T05:41:12.122Z,16.90
2023-02-11T05:43:40.410Z,14.90
2023-02-11T05:46:08.839Z,15.50
2023-02-11T05:48:37.378Z,15.90
2023-02-11T05:51:05.966Z,14.20
2023-02-11T05:53:34.096Z,12.00
2023-02-11T05:56:02.819Z,12.30
2023-02-11T05:58:31.197Z,19.50
2023-02-11T06:00:59.384Z,30.30
2023-02-11T06:03:27.560Z,18.20
2023-02-11T06:05:55.878Z,11.10
2023-02-11T06:08:24.325Z,14.60
2023-02-11T06:10:52.452Z,15.70
2023-02-11T06:13:20.504Z,19.50
2023-02-11T06:16:02.990Z,28.40
2023-02-11T06:18:33.708Z,38.30
2023-02-11T06:21:02.228Z,39.20
2023-02-11T06:23:30.804Z,26.10
2023-02-11T06:26:03.811Z,24.70
2023-02-11T06:31:06.764Z,40.70
2023-02-11T06:33:36.392Z,52.70
2023-02-11T06:36:12.451Z,57.30
2023-02-11T06:38:40.691Z,71.40
2023-02-11T06:41:13.972Z,58.70
2023-02-11T06:43:42.990Z,47.00
2023-02-11T06:46:11.440Z,69.10
2023-02-11T06:48:39.669Z,71.70
2023-02-11T06:51:10.777Z,76.10
2023-02-11T06:53:42.096Z,88.40
2023-02-11T06:56:15.326Z,64.40
2023-02-11T06:58:44.760Z,52.50
2023-02-11T07:01:16.009Z,32.60
2023-02-11T07:03:45.990Z,25.40
2023-02-11T07:06:18.400Z,21.10
2023-02-11T07:08:47.217Z,22.20
2023-02-11T07:11:24.410Z,27.50
2023-02-11T07:13:56.048Z,19.70
2023-02-11T07:16:24.381Z,26.00
2023-02-11T07:18:52.694Z,20.40
2023-02-11T07:21:22.713Z,16.80
2023-02-11T07:23:51.956Z,18.90
2023-02-11T07:26:29.445Z,14.70
2023-02-11T07:28:57.572Z,23.90
2023-02-11T07:31:28.826Z,19.70
2023-02-11T07:34:00.113Z,17.60
2023-02-11T07:36:29.904Z,20.50
2023-02-11T07:38:59.075Z,18.80
2023-02-11T07:41:28.000Z,15.60
2023-02-11T07:43:56.673Z,14.70
2023-02-11T07:46:27.885Z,21.70
2023-02-11T07:48:56.411Z,14.70
2023-02-11T07:51:30.155Z,23.50
2023-02-11T07:54:00.028Z,14.30
2023-02-11T07:56:30.251Z,19.30
2023-02-11T07:59:03.239Z,18.70
2023-02-11T08:01:32.192Z,18.60
2023-02-11T08:04:02.266Z,20.20
2023-02-11T08:06:33.790Z,17.20
2023-02-11T08:09:07.977Z,15.50
2023-02-11T08:11:36.409Z,15.80
2023-02-11T08:14:04.583Z,17.50
2023-02-11T08:16:35.763Z,19.70
2023-02-11T08:19:06.946Z,18.30
2023-02-11T08:21:35.457Z,19.90
2023-02-11T08:24:04.390Z,16.40
2023-02-11T08:26:35.042Z,17.10
2023-02-11T08:29:11.121Z,15.50
2023-02-11T08:31:42.995Z,15.60
2023-02-11T08:34:14.420Z,17.30
2023-02-11T08:36:43.687Z,16.90
2023-02-11T08:39:21.234Z,25.30
2023-02-11T08:41:52.911Z,25.70
2023-02-11T08:44:22.026Z,13.70
2023-02-11T08:46:51.544Z,15.90
2023-02-11T08:49:20.264Z,12.40
2023-02-11T08:51:49.425Z,18.00
2023-02-11T08:54:18.299Z,9.90
2023-02-11T08:56:46.581Z,9.30
2023-02-11T08:59:15.611Z,13.00
2023-02-11T09:01:44.738Z,14.30
2023-02-11T09:04:14.103Z,13.10
2023-02-11T09:06:42.857Z,14.00
2023-02-11T09:09:13.977Z,17.80
2023-02-11T09:11:44.034Z,14.90
2023-02-11T09:14:21.500Z,15.00
2023-02-11T09:16:50.799Z,16.00
2023-02-11T09:19:20.576Z,17.50
2023-02-11T09:21:49.321Z,22.60
2023-02-11T09:24:18.724Z,21.90
2023-02-11T09:26:47.004Z,19.50
2023-02-11T09:29:15.281Z,15.20
2023-02-11T09:31:43.938Z,18.20
2023-02-11T09:34:12.962Z,14.90
2023-02-11T09:36:41.861Z,20.80
2023-02-11T09:39:14.886Z,14.80
2023-02-11T09:42:20.832Z,13.50
2023-02-11T09:44:50.013Z,15.10
2023-02-11T09:47:31.026Z,14.40
2023-02-11T09:50:04.426Z,14.90
2023-02-11T09:53:03.920Z,16.60
2023-02-11T09:55:40.774Z,16.90
2023-02-11T09:58:14.638Z,18.80
2023-02-11T10:01:07.892Z,19.40
2023-02-11T10:03:43.340Z,16.40
2023-02-11T10:06:19.852Z,15.30
2023-02-11T10:08:53.529Z,16.40
2023-02-11T10:11:39.023Z,16.00
2023-02-11T10:14:39.500Z,15.30
2023-02-11T10:17:26.512Z,13.40
2023-02-11T10:20:17.225Z,13.40
2023-02-11T10:22:52.739Z,13.80
2023-02-11T10:25:35.071Z,13.30
2023-02-11T10:28:14.121Z,12.20
2023-02-11T10:30:57.883Z,15.60
2023-02-11T10:34:05.460Z,19.50
2023-02-11T10:36:36.817Z,17.20
2023-02-11T10:39:14.182Z,15.80
2023-02-11T10:41:46.237Z,14.00
2023-02-11T10:44:37.769Z,14.70
2023-02-11T10:47:16.083Z,17.50
2023-02-11T10:49:46.322Z,18.10
2023-02-11T10:52:30.878Z,15.00
2023-02-11T10:55:14.915Z,14.70
2023-02-11T10:58:03.572Z,17.70
2023-02-11T11:00:39.033Z,17.00
2023-02-11T11:03:34.868Z,23.40
2023-02-11T11:06:07.323Z,22.30
2023-02-11T11:08:49.444Z,18.30
2023-02-11T11:11:20.595Z,16.90
2023-02-11T11:14:01.902Z,17.60
2023-02-11T11:16:35.500Z,17.40
2023-02-11T11:19:06.811Z,16.80
2023-02-11T11:21:55.893Z,18.20
2023-02-11T11:24:44.492Z,18.50
2023-02-11T11:27:23.642Z,18.50
2023-02-11T11:29:55.418Z,18.50
2023-02-11T11:32:28.710Z,21.90
2023-02-11T11:35:02.755Z,16.70
2023-02-11T11:37:33.221Z,17.10
2023-02-11T11:40:23.852Z,19.50
2023-02-11T11:43:14.359Z,19.30
2023-02-11T11:45:58.216Z,17.60
2023-02-11T11:51:16.253Z,22.90
2023-02-11T11:53:53.939Z,15.10
2023-02-11T11:56:25.140Z,16.30
2023-02-11T11:58:54.681Z,14.70
2023-02-11T12:01:51.948Z,20.30
2023-02-11T12:04:41.435Z,15.30
2023-02-11T12:07:29.891Z,13.80
2023-02-11T12:10:10.477Z,13.90
2023-02-11T12:13:00.986Z,16.30
2023-02-11T12:16:04.820Z,17.20
2023-02-11T12:18:39.562Z,13.20
2023-02-11T12:21:23.055Z,12.80
2023-02-11T12:24:00.442Z,13.50
2023-02-11T12:26:57.718Z,18.70
2023-02-11T12:29:41.460Z,14.10
2023-02-11T12:32:32.333Z,12.90
2023-02-11T12:35:32.757Z,11.40
2023-02-11T12:38:48.912Z,12.70
2023-02-11T12:41:45.509Z,11.70
2023-02-11T12:44:29.982Z,12.40
2023-02-11T12:47:04.494Z,13.40
2023-02-11T12:49:41.966Z,14.10
2023-02-11T12:52:32.588Z,12.90
2023-02-11T12:55:09.981Z,12.60
2023-02-11T12:57:42.046Z,14.40
2023-02-11T13:00:13.720Z,14.80
2023-02-11T13:02:54.687Z,13.70
2023-02-11T13:05:38.230Z,14.20
2023-02-11T13:08:30.971Z,16.10
2023-02-11T13:11:21.296Z,12.90
2023-02-11T13:13:52.974Z,13.10
2023-02-11T13:16:42.684Z,11.00
2023-02-11T13:19:14.057Z,12.30
2023-02-11T13:22:02.763Z,12.90
2023-02-11T13:24:56.816Z,13.40
2023-02-11T13:30:58.062Z,12.80
2023-02-11T13:33:46.235Z,12.60
2023-02-11T13:36:23.519Z,12.20
2023-02-11T13:38:55.574Z,11.60
2023-02-11T13:43:58.928Z,11.10
2023-02-11T13:46:49.202Z,11.80
2023-02-11T13:49:40.932Z,13.30
2023-02-11T13:52:25.104Z,12.80
2023-02-11T13:54:56.404Z,12.90
2023-02-11T13:57:30.423Z,12.60
2023-02-11T14:00:01.870Z,11.70
2023-02-11T14:02:50.379Z,13.40
2023-02-11T14:05:37.235Z,12.70
2023-02-11T14:08:39.106Z,13.30
2023-02-11T14:11:32.884Z,12.20
2023-02-11T14:14:19.806Z,11.60
2023-02-11T14:17:03.602Z,13.60
2023-02-11T14:22:30.303Z,12.00
2023-02-11T14:25:04.788Z,11.20
2023-02-11T14:27:52.468Z,11.10
2023-02-11T14:30:29.937Z,11.10
2023-02-11T14:33:09.199Z,10.70
2023-02-11T14:35:55.500Z,9.30
2023-02-11T14:38:45.723Z,10.10
2023-02-11T14:41:20.660Z,9.30
2023-02-11T14:43:53.911Z,11.30
2023-02-11T14:46:24.702Z,11.00
2023-02-11T14:48:57.535Z,10.10
2023-02-11T14:51:31.489Z,10.30
2023-02-11T14:54:15.518Z,9.20
2023-02-11T14:56:44.999Z,10.70
2023-02-11T14:59:23.043Z,9.60
2023-02-11T15:01:56.739Z,9.30
2023-02-11T15:04:36.262Z,9.10
2023-02-11T15:07:08.460Z,9.50
2023-02-11T15:09:51.095Z,8.70
2023-02-11T15:12:28.144Z,9.40
2023-02-11T15:15:00.555Z,9.30
2023-02-11T15:17:32.163Z,9.60
2023-02-11T15:20:02.805Z,10.40
2023-02-11T15:22:36.980Z,15.20
2023-02-11T15:25:16.750Z,11.40
2023-02-11T15:27:53.358Z,12.60
2023-02-11T15:30:21.356Z,10.00
2023-02-11T15:32:59.967Z,13.60
2023-02-11T15:35:31.882Z,13.20
2023-02-11T15:38:00.289Z,24.40
2023-02-11T15:40:34.830Z,28.80
2023-02-11T15:43:06.210Z,26.40
2023-02-11T15:45:54.718Z,33.90
2023-02-11T15:48:26.760Z,38.80
2023-02-11T15:51:01.180Z,28.70
2023-02-11T15:53:37.560Z,26.30
2023-02-11T15:56:21.700Z,22.50
2023-02-11T15:58:54.026Z,24.00
2023-02-11T16:01:42.653Z,80.50
2023-02-11T16:04:31.643Z,50.90
2023-02-11T16:06:59.728Z,50.10
2023-02-11T16:09:36.382Z,32.20
2023-02-11T16:12:25.017Z,47.50
2023-02-11T16:14:53.124Z,67.40
2023-02-11T16:17:30.763Z,63.40
2023-02-11T16:19:58.944Z,46.70
2023-02-11T16:22:30.321Z,77.50
2023-02-11T16:25:00.042Z,61.50
2023-02-11T16:27:42.314Z,65.20
2023-02-11T16:30:35.157Z,57.30
2023-02-11T16:33:05.703Z,96.10
2023-02-11T16:35:33.763Z,74.80
2023-02-11T16:38:01.961Z,80.80
2023-02-11T16:40:30.088Z,83.30
2023-02-11T16:42:58.638Z,71.60
2023-02-11T16:45:27.107Z,67.90
2023-02-11T16:47:55.339Z,73.80
2023-02-11T16:50:25.902Z,57.00
2023-02-11T16:52:54.180Z,61.80
2023-02-11T16:55:22.661Z,58.40
2023-02-11T16:57:50.839Z,50.80
2023-02-11T17:00:19.939Z,55.80
2023-02-11T17:02:48.138Z,77.30
2023-02-11T17:05:23.169Z,83.30
2023-02-11T17:07:52.657Z,91.80
2023-02-11T17:10:23.590Z,92.00
2023-02-11T17:12:52.786Z,70.40
2023-02-11T17:15:21.165Z,78.20
2023-02-11T17:17:49.356Z,124.60
2023-02-11T17:20:17.719Z,106.10
2023-02-11T17:22:45.743Z,104.40
2023-02-11T17:25:14.298Z,99.30
2023-02-11T17:27:43.078Z,96.40
2023-02-11T17:30:13.895Z,134.70
2023-02-11T17:32:42.095Z,115.90
2023-02-11T17:35:10.526Z,95.90
2023-02-11T17:37:38.945Z,66.20
2023-02-11T17:40:08.638Z,64.10
2023-02-11T17:42:36.688Z,71.30
2023-02-11T17:45:05.472Z,67.60
2023-02-11T17:47:33.795Z,74.70
2023-02-11T17:50:03.302Z,73.40
2023-02-11T17:52:31.488Z,60.70
2023-02-11T17:54:59.602Z,61.60
2023-02-11T17:57:28.141Z,81.50
2023-02-11T17:59:56.523Z,85.40
2023-02-11T18:02:24.796Z,81.10
2023-02-11T18:04:53.549Z,66.70
2023-02-11T18:07:21.788Z,62.20
2023-02-11T18:09:50.152Z,62.20
2023-02-11T18:12:26.342Z,72.10
2023-02-11T18:14:57.862Z,41.90
2023-02-11T18:17:26.771Z,38.20
2023-02-11T18:19:58.519Z,40.50
2023-02-11T18:22:26.949Z,38.30
2023-02-11T18:24:55.687Z,42.10
2023-02-11T18:27:23.859Z,49.70
2023-02-11T18:29:52.249Z,82.20
2023-02-11T18:32:20.521Z,84.30
2023-02-11T18:34:48.592Z,87.80
2023-02-11T18:37:17.193Z,79.90
2023-02-11T18:39:45.451Z,88.10
2023-02-11T18:42:13.882Z,85.70
2023-02-11T18:44:42.117Z,72.30
2023-02-11T18:47:10.530Z,74.40
2023-02-11T18:49:39.496Z,76.30
2023-02-11T18:52:07.669Z,96.40
2023-02-11T18:54:35.779Z,94.80
2023-02-11T18:57:04.434Z,100.40
2023-02-11T18:59:32.642Z,100.10
2023-02-11T19:02:00.988Z,79.00
2023-02-11T19:04:29.317Z,71.60
2023-02-11T19:06:59.842Z,64.80
2023-02-11T19:09:28.382Z,58.70
2023-02-11T19:11:58.298Z,55.50
2023-02-11T19:14:31.586Z,38.90
2023-02-11T19:17:02.192Z,45.40
2023-02-11T19:19:33.465Z,44.20
2023-02-11T19:22:03.130Z,42.00
2023-02-11T19:24:31.257Z,40.10
2023-02-11T19:27:01.753Z,43.90
2023-02-11T19:29:33.488Z,48.30
2023-02-11T19:32:06.316Z,49.10
2023-02-11T19:34:41.260Z,49.20
2023-02-11T19:37:12.893Z,49.60
2023-02-11T19:39:43.257Z,62.10
2023-02-11T19:42:12.650Z,57.20
2023-02-11T19:44:40.881Z,102.90
2023-02-11T19:47:10.493Z,137.60
2023-02-11T19:49:38.717Z,68.20
2023-02-11T19:52:06.927Z,107.60
2023-02-11T19:54:35.072Z,92.60
2023-02-11T19:57:03.271Z,70.50
2023-02-11T19:59:31.831Z,71.60
2023-02-11T20:02:01.673Z,101.50
2023-02-11T20:04:32.293Z,69.60
2023-02-11T20:07:00.663Z,118.70
2023-02-11T20:09:31.225Z,92.30
2023-02-11T20:11:59.779Z,86.20
2023-02-11T20:14:28.252Z,120.20
2023-02-11T20:16:56.565Z,100.60
2023-02-11T20:19:25.022Z,73.70
2023-02-11T20:21:56.013Z,61.10
2023-02-11T20:24:26.082Z,62.90
2023-02-11T20:26:57.134Z,78.60
2023-02-11T20:29:26.166Z,61.50
2023-02-11T20:31:55.091Z,66.30
2023-02-11T20:34:24.722Z,84.70
2023-02-11T20:36:53.305Z,65.60
2023-02-11T20:39:23.906Z,62.50
2023-02-11T20:41:53.959Z,50.50
2023-02-11T20:44:23.476Z,35.80
2023-02-11T20:46:54.367Z,32.60
2023-02-11T20:49:24.711Z,25.50
2023-02-11T20:51:54.204Z,22.60
2023-02-11T20:54:24.570Z,24.80
2023-02-11T20:56:56.050Z,29.30
2023-02-11T20:59:24.824Z,23.80
2023-02-11T21:01:56.074Z,46.80
2023-02-11T21:04:30.971Z,33.90
2023-02-11T21:07:02.172Z,31.80
2023-02-11T21:09:33.461Z,34.60
2023-02-11T21:12:03.007Z,36.20
2023-02-11T21:14:31.426Z,49.00
2023-02-11T21:16:59.649Z,57.10
2023-02-11T21:19:27.930Z,47.70
2023-02-11T21:21:57.488Z,36.50
2023-02-11T21:24:25.813Z,35.30
2023-02-11T21:26:55.018Z,36.60
2023-02-11T21:29:23.116Z,34.30
2023-02-11T21:31:51.552Z,32.30
2023-02-11T21:34:20.915Z,38.90
2023-02-11T21:36:51.383Z,47.70
2023-02-11T21:39:20.630Z,38.60
2023-02-11T21:41:48.999Z,36.50
2023-02-11T21:44:17.576Z,29.90
2023-02-11T21:46:45.824Z,28.90
2023-02-11T21:49:14.238Z,25.00
2023-02-11T21:51:43.026Z,24.90
2023-02-11T21:54:11.416Z,27.40
2023-02-11T21:56:40.721Z,22.70
2023-02-11T21:59:13.122Z,22.00
2023-02-11T22:01:41.465Z,20.80
2023-02-11T22:04:09.943Z,23.10
2023-02-11T22:06:38.631Z,28.30
2023-02-11T22:09:09.213Z,20.40
2023-02-11T22:11:37.905Z,21.10
2023-02-11T22:14:06.252Z,21.30
2023-02-11T22:16:35.074Z,19.70
2023-02-11T22:19:03.604Z,20.90
2023-02-11T22:21:31.786Z,19.70
2023-02-11T22:24:00.369Z,19.60
2023-02-11T22:26:28.680Z,20.20
2023-02-11T22:28:57.629Z,17.50
2023-02-11T22:31:28.924Z,18.60
2023-02-11T22:33:58.105Z,19.30
2023-02-11T22:36:34.737Z,21.40
2023-02-11T22:39:09.207Z,18.00
2023-02-11T22:41:40.684Z,18.10
2023-02-11T22:44:10.050Z,20.00
2023-02-11T22:46:38.925Z,19.10
2023-02-11T22:49:07.561Z,19.20
2023-02-11T22:51:35.995Z,19.30
2023-02-11T22:54:06.806Z,16.70
2023-02-11T22:56:35.532Z,17.00
2023-02-11T22:59:07.822Z,19.30
2023-02-11T23:01:36.463Z,21.60
2023-02-11T23:04:07.218Z,21.70
2023-02-11T23:06:36.010Z,21.10
2023-02-11T23:09:09.504Z,21.00
2023-02-11T23:14:08.729Z,20.50
2023-02-11T23:16:36.954Z,23.40
2023-02-11T23:19:08.396Z,22.00
2023-02-11T23:21:39.021Z,24.40
2023-02-11T23:24:12.113Z,24.50
2023-02-11T23:26:42.243Z,23.50
2023-02-11T23:29:11.507Z,23.60
2023-02-11T23:31:44.058Z,25.00
2023-02-11T23:34:17.418Z,25.90
2023-02-11T23:36:45.590Z,28.60
2023-02-11T23:39:15.842Z,25.30
2023-02-11T23:41:44.794Z,23.80
2023-02-11T23:44:13.255Z,28.00
2023-02-11T23:46:41.580Z,31.20
2023-02-11T23:49:10.120Z,32.90
2023-02-11T23:51:38.258Z,34.50
2023-02-11T23:54:06.477Z,27.40
2023-02-11T23:56:37.102Z,28.20
2023-02-11T23:59:06.058Z,29.90
